SHT9Z EGPH-EGLL
Flight info
| Callsign | SHT9Z |
|---|---|
| Flight time | 1h 5m |
| Altitude | 22000 |
| Route | GOSAM P600 TRN/N0460F300 DCT BLACA P620 NELBO/N0457F310 DCT IOM/N0426F250 L10 WAL UY53 NUGRA |
| Aircraft | A320/M-SDE3FGHIRWY/LB1 |
Departure
| Time | 2026-04-21 11:37 |
|---|---|
| Airport | Edinburgh Airport (EGPH) |
Arrival
| Time | 2026-04-21 12:42 |
|---|---|
| Airport | London Heathrow Airport (EGLL) |
| Time | Latitude | Longitude | Altitude | Speed | Heading |
|---|---|---|---|---|---|
| 2026-04-21 10:49 | 55.94657 | -3.36612 | 115 ft | 0 kts | 89° |
| 2026-04-21 11:27 | 55.94657 | -3.36628 | 112 ft | 3 kts | 88° |
| 2026-04-21 11:28 | 55.94655 | -3.36664 | 114 ft | 3 kts | 81° |
| 2026-04-21 11:28 | 55.94651 | -3.36699 | 112 ft | 3 kts | 66° |
| 2026-04-21 11:28 | 55.94641 | -3.36727 | 114 ft | 3 kts | 30° |
| 2026-04-21 11:28 | 55.94630 | -3.36735 | 113 ft | 0 kts | 0° |
| 2026-04-21 11:31 | 55.94636 | -3.36735 | 112 ft | 2 kts | 0° |
| 2026-04-21 11:31 | 55.94659 | -3.36735 | 114 ft | 5 kts | 359° |
| 2026-04-21 11:31 | 55.94704 | -3.36736 | 116 ft | 8 kts | 359° |
| 2026-04-21 11:32 | 55.94766 | -3.36761 | 113 ft | 11 kts | 334° |
| 2026-04-21 11:32 | 55.94848 | -3.36778 | 116 ft | 11 kts | 359° |
| 2026-04-21 11:32 | 55.94900 | -3.36808 | 113 ft | 9 kts | 332° |
| 2026-04-21 11:32 | 55.94922 | -3.36908 | 113 ft | 11 kts | 246° |
| 2026-04-21 11:33 | 55.94878 | -3.37036 | 115 ft | 13 kts | 238° |
| 2026-04-21 11:33 | 55.94825 | -3.37191 | 114 ft | 16 kts | 238° |
| 2026-04-21 11:33 | 55.94760 | -3.37383 | 112 ft | 30 kts | 240° |
| 2026-04-21 11:33 | 55.94637 | -3.37747 | 112 ft | 21 kts | 239° |
| 2026-04-21 11:34 | 55.94556 | -3.37986 | 113 ft | 24 kts | 239° |
| 2026-04-21 11:34 | 55.94468 | -3.38246 | 115 ft | 22 kts | 239° |
| 2026-04-21 11:34 | 55.94399 | -3.38451 | 113 ft | 17 kts | 238° |
| 2026-04-21 11:34 | 55.94342 | -3.38617 | 114 ft | 16 kts | 239° |
| 2026-04-21 11:35 | 55.94306 | -3.38728 | 114 ft | 15 kts | 240° |
| 2026-04-21 11:35 | 55.94288 | -3.38843 | 116 ft | 8 kts | 304° |
| 2026-04-21 11:35 | 55.94331 | -3.38918 | 115 ft | 10 kts | 327° |
| 2026-04-21 11:35 | 55.94392 | -3.38977 | 114 ft | 10 kts | 339° |
| 2026-04-21 11:36 | 55.94431 | -3.38929 | 114 ft | 0 kts | 59° |
| 2026-04-21 11:36 | 55.94451 | -3.38867 | 114 ft | 29 kts | 59° |
| 2026-04-21 11:36 | 55.94683 | -3.38183 | 114 ft | 96 kts | 59° |
| 2026-04-21 11:36 | 55.94953 | -3.37385 | 112 ft | 130 kts | 59° |
| 2026-04-21 11:37 | 55.95468 | -3.35844 | 458 ft | 150 kts | 60° |
| 2026-04-21 11:37 | 55.96033 | -3.34289 | 1269 ft | 149 kts | 51° |
| 2026-04-21 11:37 | 55.97088 | -3.32528 | 1879 ft | 167 kts | 45° |
| 2026-04-21 11:37 | 55.97997 | -3.31063 | 2155 ft | 190 kts | 45° |
| 2026-04-21 11:38 | 55.99045 | -3.29375 | 2504 ft | 215 kts | 44° |
| 2026-04-21 11:38 | 56.00393 | -3.27934 | 2999 ft | 240 kts | 18° |
| 2026-04-21 11:38 | 56.01542 | -3.27735 | 3506 ft | 252 kts | 358° |
| 2026-04-21 11:38 | 56.03218 | -3.28834 | 4348 ft | 268 kts | 326° |
| 2026-04-21 11:39 | 56.04364 | -3.31465 | 5145 ft | 282 kts | 291° |
| 2026-04-21 11:39 | 56.04540 | -3.34951 | 5953 ft | 287 kts | 255° |
| 2026-04-21 11:39 | 56.03710 | -3.38152 | 6810 ft | 286 kts | 233° |
| 2026-04-21 11:39 | 56.02623 | -3.41140 | 7673 ft | 288 kts | 236° |
| 2026-04-21 11:40 | 56.01779 | -3.44439 | 8487 ft | 296 kts | 247° |
| 2026-04-21 11:40 | 56.01142 | -3.47954 | 9347 ft | 299 kts | 250° |
| 2026-04-21 11:40 | 56.00584 | -3.51561 | 10167 ft | 302 kts | 252° |
| 2026-04-21 11:40 | 56.00066 | -3.55226 | 10883 ft | 310 kts | 253° |
| 2026-04-21 11:41 | 55.99540 | -3.59048 | 11105 ft | 333 kts | 253° |
| 2026-04-21 11:41 | 55.98966 | -3.63202 | 11263 ft | 356 kts | 253° |
| 2026-04-21 11:41 | 55.98350 | -3.67613 | 11525 ft | 373 kts | 253° |
| 2026-04-21 11:41 | 55.97712 | -3.72147 | 12078 ft | 379 kts | 253° |
| 2026-04-21 11:42 | 55.97060 | -3.76738 | 12727 ft | 383 kts | 253° |
| 2026-04-21 11:42 | 55.96394 | -3.81370 | 13373 ft | 387 kts | 253° |
| 2026-04-21 11:42 | 55.95715 | -3.86047 | 14001 ft | 391 kts | 253° |
| 2026-04-21 11:42 | 55.95036 | -3.90705 | 14597 ft | 395 kts | 253° |
| 2026-04-21 11:43 | 55.94338 | -3.95467 | 15150 ft | 398 kts | 252° |
| 2026-04-21 11:43 | 55.93308 | -4.00022 | 15688 ft | 396 kts | 235° |
| 2026-04-21 11:43 | 55.91587 | -4.03786 | 16221 ft | 391 kts | 217° |
| 2026-04-21 11:43 | 55.89420 | -4.06692 | 16761 ft | 390 kts | 211° |
| 2026-04-21 11:44 | 55.87203 | -4.09507 | 17321 ft | 393 kts | 211° |
| 2026-04-21 11:44 | 55.84959 | -4.12339 | 17877 ft | 397 kts | 211° |
| 2026-04-21 11:44 | 55.82698 | -4.15190 | 18436 ft | 400 kts | 211° |
| 2026-04-21 11:44 | 55.80421 | -4.18068 | 18971 ft | 403 kts | 211° |
| 2026-04-21 11:45 | 55.78130 | -4.20979 | 19461 ft | 407 kts | 212° |
| 2026-04-21 11:45 | 55.76145 | -4.24544 | 19914 ft | 421 kts | 233° |
| 2026-04-21 11:45 | 55.74995 | -4.29376 | 20376 ft | 433 kts | 256° |
| 2026-04-21 11:45 | 55.74648 | -4.34720 | 20852 ft | 438 kts | 261° |
| 2026-04-21 11:46 | 55.73861 | -4.39883 | 21303 ft | 433 kts | 240° |
| 2026-04-21 11:46 | 55.72149 | -4.44211 | 21521 ft | 426 kts | 222° |
| 2026-04-21 11:46 | 55.69862 | -4.47557 | 21588 ft | 430 kts | 207° |
| 2026-04-21 11:46 | 55.67125 | -4.49708 | 21559 ft | 433 kts | 191° |
| 2026-04-21 11:47 | 55.64195 | -4.50393 | 21549 ft | 429 kts | 175° |
| 2026-04-21 11:47 | 55.61277 | -4.49591 | 21542 ft | 423 kts | 159° |
| 2026-04-21 11:47 | 55.58634 | -4.47426 | 21533 ft | 417 kts | 144° |
| 2026-04-21 11:47 | 55.56432 | -4.44144 | 21524 ft | 414 kts | 132° |
| 2026-04-21 11:48 | 55.54441 | -4.40457 | 21526 ft | 415 kts | 132° |
| 2026-04-21 11:48 | 55.52459 | -4.36761 | 21521 ft | 415 kts | 131° |
| 2026-04-21 11:48 | 55.50473 | -4.33060 | 21518 ft | 415 kts | 132° |
| 2026-04-21 11:48 | 55.48486 | -4.29361 | 21519 ft | 415 kts | 132° |
| 2026-04-21 11:49 | 55.46500 | -4.25674 | 21520 ft | 415 kts | 132° |
| 2026-04-21 11:49 | 55.44509 | -4.21994 | 21533 ft | 415 kts | 132° |
| 2026-04-21 11:49 | 55.42538 | -4.18368 | 21525 ft | 415 kts | 132° |
| 2026-04-21 11:49 | 55.40541 | -4.14700 | 21520 ft | 415 kts | 132° |
| 2026-04-21 11:50 | 55.38542 | -4.11031 | 21505 ft | 415 kts | 132° |
| 2026-04-21 11:50 | 55.36543 | -4.07361 | 21501 ft | 416 kts | 132° |
| 2026-04-21 11:50 | 55.34543 | -4.03696 | 21497 ft | 416 kts | 132° |
| 2026-04-21 11:50 | 55.32540 | -4.00032 | 21495 ft | 415 kts | 132° |
| 2026-04-21 11:51 | 55.30537 | -3.96372 | 21498 ft | 416 kts | 132° |
| 2026-04-21 11:51 | 55.28533 | -3.92716 | 21491 ft | 415 kts | 132° |
| 2026-04-21 11:51 | 55.26528 | -3.89069 | 21490 ft | 416 kts | 132° |
| 2026-04-21 11:51 | 55.24522 | -3.85427 | 21468 ft | 415 kts | 132° |
| 2026-04-21 11:52 | 55.22431 | -3.82023 | 21470 ft | 418 kts | 140° |
| 2026-04-21 11:52 | 55.20018 | -3.79171 | 21484 ft | 421 kts | 148° |
| 2026-04-21 11:52 | 55.17445 | -3.76716 | 21481 ft | 422 kts | 149° |
| 2026-04-21 11:52 | 55.14866 | -3.74264 | 21479 ft | 422 kts | 149° |
| 2026-04-21 11:53 | 55.12284 | -3.71811 | 21484 ft | 423 kts | 149° |
| 2026-04-21 11:53 | 55.09702 | -3.69359 | 21474 ft | 423 kts | 149° |
| 2026-04-21 11:53 | 55.07115 | -3.66903 | 21477 ft | 423 kts | 149° |
| 2026-04-21 11:53 | 55.04528 | -3.64448 | 21479 ft | 424 kts | 149° |
| 2026-04-21 11:54 | 55.01942 | -3.61992 | 21481 ft | 424 kts | 149° |
| 2026-04-21 11:54 | 54.99385 | -3.59567 | 21477 ft | 424 kts | 149° |
| 2026-04-21 11:54 | 54.96795 | -3.57115 | 21477 ft | 424 kts | 149° |
| 2026-04-21 11:54 | 54.94204 | -3.54669 | 21489 ft | 424 kts | 149° |
| 2026-04-21 11:55 | 54.91609 | -3.52226 | 21484 ft | 424 kts | 149° |
| 2026-04-21 11:55 | 54.89010 | -3.49786 | 21476 ft | 425 kts | 149° |
| 2026-04-21 11:55 | 54.86411 | -3.47349 | 21476 ft | 425 kts | 149° |
| 2026-04-21 11:55 | 54.83811 | -3.44910 | 21474 ft | 425 kts | 149° |
| 2026-04-21 11:56 | 54.81209 | -3.42469 | 21471 ft | 425 kts | 149° |
| 2026-04-21 11:56 | 54.78641 | -3.40065 | 21463 ft | 425 kts | 149° |
| 2026-04-21 11:56 | 54.76039 | -3.37642 | 21463 ft | 425 kts | 150° |
| 2026-04-21 11:56 | 54.73431 | -3.35221 | 21465 ft | 425 kts | 150° |
| 2026-04-21 11:57 | 54.70802 | -3.32872 | 21466 ft | 426 kts | 152° |
| 2026-04-21 11:57 | 54.68115 | -3.30708 | 21478 ft | 426 kts | 154° |
| 2026-04-21 11:57 | 54.65393 | -3.28678 | 21477 ft | 426 kts | 155° |
| 2026-04-21 11:57 | 54.62656 | -3.26716 | 21476 ft | 426 kts | 155° |
| 2026-04-21 11:58 | 54.59912 | -3.24763 | 21463 ft | 426 kts | 155° |
| 2026-04-21 11:58 | 54.57217 | -3.22820 | 21458 ft | 426 kts | 155° |
| 2026-04-21 11:58 | 54.54492 | -3.20823 | 21456 ft | 426 kts | 154° |
| 2026-04-21 11:58 | 54.51773 | -3.18807 | 21455 ft | 425 kts | 154° |
| 2026-04-21 11:59 | 54.49059 | -3.16778 | 21460 ft | 425 kts | 154° |
| 2026-04-21 11:59 | 54.46349 | -3.14746 | 21456 ft | 425 kts | 154° |
| 2026-04-21 11:59 | 54.43637 | -3.12715 | 21451 ft | 426 kts | 155° |
| 2026-04-21 11:59 | 54.40919 | -3.10686 | 21443 ft | 426 kts | 155° |
| 2026-04-21 12:00 | 54.38197 | -3.08664 | 21438 ft | 426 kts | 155° |
| 2026-04-21 12:00 | 54.35511 | -3.06678 | 21444 ft | 427 kts | 154° |
| 2026-04-21 12:00 | 54.32787 | -3.04667 | 21442 ft | 427 kts | 155° |
| 2026-04-21 12:00 | 54.30058 | -3.02657 | 21439 ft | 427 kts | 154° |
| 2026-04-21 12:01 | 54.27333 | -3.00655 | 21444 ft | 426 kts | 154° |
| 2026-04-21 12:01 | 54.24608 | -2.98653 | 21441 ft | 426 kts | 154° |
| 2026-04-21 12:01 | 54.21885 | -2.96653 | 21442 ft | 426 kts | 155° |
| 2026-04-21 12:01 | 54.19158 | -2.94651 | 21441 ft | 426 kts | 155° |
| 2026-04-21 12:02 | 54.16432 | -2.92654 | 21442 ft | 426 kts | 155° |
| 2026-04-21 12:02 | 54.11014 | -2.88701 | 21423 ft | 427 kts | 155° |
| 2026-04-21 12:02 | 54.08289 | -2.86709 | 21419 ft | 427 kts | 155° |
| 2026-04-21 12:03 | 54.05556 | -2.84713 | 21420 ft | 427 kts | 155° |
| 2026-04-21 12:03 | 54.02828 | -2.82730 | 21424 ft | 426 kts | 155° |
| 2026-04-21 12:03 | 54.00099 | -2.80753 | 21418 ft | 426 kts | 155° |
| 2026-04-21 12:03 | 53.97374 | -2.78780 | 21422 ft | 426 kts | 155° |
| 2026-04-21 12:04 | 53.94649 | -2.76805 | 21436 ft | 425 kts | 155° |
| 2026-04-21 12:04 | 53.91927 | -2.74838 | 21431 ft | 426 kts | 155° |
| 2026-04-21 12:04 | 53.89224 | -2.72884 | 21430 ft | 430 kts | 156° |
| 2026-04-21 12:04 | 53.86474 | -2.70898 | 21435 ft | 430 kts | 155° |
| 2026-04-21 12:05 | 53.83730 | -2.68925 | 21428 ft | 428 kts | 156° |
| 2026-04-21 12:05 | 53.80967 | -2.66947 | 21429 ft | 432 kts | 156° |
| 2026-04-21 12:05 | 53.78192 | -2.64976 | 21430 ft | 432 kts | 156° |
| 2026-04-21 12:05 | 53.75326 | -2.63436 | 21430 ft | 433 kts | 162° |
| 2026-04-21 12:06 | 53.72434 | -2.62100 | 21427 ft | 432 kts | 163° |
| 2026-04-21 12:06 | 53.69525 | -2.60748 | 21418 ft | 438 kts | 163° |
| 2026-04-21 12:06 | 53.66607 | -2.59393 | 21423 ft | 441 kts | 162° |
| 2026-04-21 12:06 | 53.63668 | -2.58033 | 21419 ft | 436 kts | 162° |
| 2026-04-21 12:07 | 53.60759 | -2.56694 | 21418 ft | 432 kts | 162° |
| 2026-04-21 12:07 | 53.57846 | -2.55351 | 21421 ft | 435 kts | 163° |
| 2026-04-21 12:07 | 53.54928 | -2.54008 | 21420 ft | 434 kts | 162° |
| 2026-04-21 12:07 | 53.52023 | -2.52675 | 21413 ft | 433 kts | 162° |
| 2026-04-21 12:08 | 53.49120 | -2.51340 | 21412 ft | 431 kts | 162° |
| 2026-04-21 12:08 | 53.46224 | -2.50009 | 21413 ft | 431 kts | 162° |
| 2026-04-21 12:08 | 53.43331 | -2.48679 | 21409 ft | 433 kts | 163° |
| 2026-04-21 12:08 | 53.40469 | -2.47368 | 21407 ft | 431 kts | 163° |
| 2026-04-21 12:09 | 53.37567 | -2.46041 | 21408 ft | 433 kts | 163° |
| 2026-04-21 12:09 | 53.34648 | -2.44708 | 21411 ft | 435 kts | 162° |
| 2026-04-21 12:09 | 53.31742 | -2.43384 | 21407 ft | 432 kts | 163° |
| 2026-04-21 12:09 | 53.28834 | -2.42055 | 21410 ft | 432 kts | 162° |
| 2026-04-21 12:10 | 53.25947 | -2.40738 | 21407 ft | 429 kts | 162° |
| 2026-04-21 12:10 | 53.23057 | -2.39424 | 21407 ft | 432 kts | 163° |
| 2026-04-21 12:10 | 53.20141 | -2.38105 | 21406 ft | 437 kts | 163° |
| 2026-04-21 12:10 | 53.17227 | -2.36789 | 21405 ft | 441 kts | 164° |
| 2026-04-21 12:11 | 53.14260 | -2.35453 | 21404 ft | 442 kts | 164° |
| 2026-04-21 12:11 | 53.11294 | -2.34121 | 21396 ft | 442 kts | 164° |
| 2026-04-21 12:11 | 53.08324 | -2.32787 | 21394 ft | 442 kts | 164° |
| 2026-04-21 12:11 | 53.05366 | -2.31447 | 21392 ft | 440 kts | 162° |
| 2026-04-21 12:12 | 53.02510 | -2.29624 | 21387 ft | 440 kts | 153° |
| 2026-04-21 12:12 | 52.99851 | -2.27102 | 21388 ft | 441 kts | 147° |
| 2026-04-21 12:12 | 52.97264 | -2.24359 | 21385 ft | 445 kts | 147° |
| 2026-04-21 12:12 | 52.94622 | -2.21581 | 21391 ft | 453 kts | 147° |
| 2026-04-21 12:13 | 52.91985 | -2.18824 | 21381 ft | 456 kts | 147° |
| 2026-04-21 12:13 | 52.89298 | -2.16027 | 21383 ft | 457 kts | 147° |
| 2026-04-21 12:13 | 52.86608 | -2.13227 | 21382 ft | 455 kts | 147° |
| 2026-04-21 12:13 | 52.83929 | -2.10439 | 21380 ft | 456 kts | 147° |
| 2026-04-21 12:14 | 52.81243 | -2.07643 | 21380 ft | 456 kts | 147° |
| 2026-04-21 12:14 | 52.78564 | -2.04856 | 21377 ft | 454 kts | 147° |
| 2026-04-21 12:14 | 52.75891 | -2.02081 | 21377 ft | 453 kts | 147° |
| 2026-04-21 12:14 | 52.73222 | -1.99315 | 21371 ft | 454 kts | 147° |
| 2026-04-21 12:15 | 52.70547 | -1.96547 | 21363 ft | 454 kts | 147° |
| 2026-04-21 12:15 | 52.67909 | -1.93821 | 21361 ft | 454 kts | 147° |
| 2026-04-21 12:15 | 52.65235 | -1.91058 | 21352 ft | 454 kts | 147° |
| 2026-04-21 12:15 | 52.62561 | -1.88298 | 21351 ft | 454 kts | 147° |
| 2026-04-21 12:16 | 52.59885 | -1.85539 | 21358 ft | 454 kts | 147° |
| 2026-04-21 12:16 | 52.57205 | -1.82781 | 21356 ft | 455 kts | 147° |
| 2026-04-21 12:16 | 52.54519 | -1.80020 | 21356 ft | 455 kts | 147° |
| 2026-04-21 12:16 | 52.51832 | -1.77271 | 21362 ft | 455 kts | 148° |
| 2026-04-21 12:17 | 52.49130 | -1.74515 | 21377 ft | 463 kts | 148° |
| 2026-04-21 12:17 | 52.46372 | -1.71704 | 21385 ft | 468 kts | 148° |
| 2026-04-21 12:17 | 52.43647 | -1.68925 | 21382 ft | 469 kts | 148° |
| 2026-04-21 12:17 | 52.40880 | -1.66101 | 21383 ft | 466 kts | 148° |
| 2026-04-21 12:18 | 52.38143 | -1.63308 | 21369 ft | 463 kts | 148° |
| 2026-04-21 12:18 | 52.35435 | -1.60553 | 21118 ft | 454 kts | 148° |
| 2026-04-21 12:18 | 52.32775 | -1.57859 | 20863 ft | 447 kts | 148° |
| 2026-04-21 12:18 | 52.30136 | -1.55194 | 20628 ft | 445 kts | 148° |
| 2026-04-21 12:19 | 52.27510 | -1.52543 | 20376 ft | 442 kts | 147° |
| 2026-04-21 12:19 | 52.24889 | -1.49897 | 20135 ft | 445 kts | 148° |
| 2026-04-21 12:19 | 52.22273 | -1.47219 | 19895 ft | 442 kts | 144° |
| 2026-04-21 12:19 | 52.19899 | -1.44173 | 19652 ft | 428 kts | 137° |
| 2026-04-21 12:20 | 52.17700 | -1.41072 | 19409 ft | 420 kts | 137° |
| 2026-04-21 12:20 | 52.15498 | -1.37988 | 19180 ft | 417 kts | 138° |
| 2026-04-21 12:20 | 52.13308 | -1.34941 | 18796 ft | 410 kts | 138° |
| 2026-04-21 12:20 | 52.11182 | -1.31996 | 18606 ft | 392 kts | 138° |
| 2026-04-21 12:21 | 52.09148 | -1.29179 | 18465 ft | 376 kts | 137° |
| 2026-04-21 12:21 | 52.07200 | -1.26479 | 18316 ft | 361 kts | 138° |
| 2026-04-21 12:21 | 52.05330 | -1.23891 | 18171 ft | 346 kts | 138° |
| 2026-04-21 12:21 | 52.03532 | -1.21403 | 18034 ft | 333 kts | 138° |
| 2026-04-21 12:22 | 52.01797 | -1.18998 | 17839 ft | 322 kts | 138° |
| 2026-04-21 12:22 | 52.00125 | -1.16684 | 17698 ft | 307 kts | 138° |
| 2026-04-21 12:22 | 51.98570 | -1.14541 | 17567 ft | 288 kts | 137° |
| 2026-04-21 12:22 | 51.97078 | -1.12487 | 17304 ft | 276 kts | 136° |
| 2026-04-21 12:23 | 51.95637 | -1.10500 | 16895 ft | 270 kts | 137° |
| 2026-04-21 12:23 | 51.94216 | -1.08541 | 16373 ft | 268 kts | 137° |
| 2026-04-21 12:23 | 51.92804 | -1.06594 | 15898 ft | 265 kts | 136° |
| 2026-04-21 12:23 | 51.91414 | -1.04680 | 15509 ft | 259 kts | 136° |
| 2026-04-21 12:24 | 51.90046 | -1.02798 | 15050 ft | 257 kts | 136° |
| 2026-04-21 12:24 | 51.88692 | -1.00935 | 14579 ft | 255 kts | 136° |
| 2026-04-21 12:24 | 51.87361 | -0.99105 | 14094 ft | 255 kts | 136° |
| 2026-04-21 12:24 | 51.86017 | -0.97241 | 13803 ft | 253 kts | 134° |
| 2026-04-21 12:25 | 51.84923 | -0.95049 | 13372 ft | 248 kts | 116° |
| 2026-04-21 12:25 | 51.84157 | -0.92574 | 12844 ft | 246 kts | 114° |
| 2026-04-21 12:25 | 51.83408 | -0.90090 | 12333 ft | 245 kts | 114° |
| 2026-04-21 12:25 | 51.82663 | -0.87634 | 11925 ft | 241 kts | 114° |
| 2026-04-21 12:26 | 51.81926 | -0.85211 | 11456 ft | 239 kts | 114° |
| 2026-04-21 12:26 | 51.81197 | -0.82826 | 11052 ft | 234 kts | 114° |
| 2026-04-21 12:26 | 51.80474 | -0.80465 | 10572 ft | 235 kts | 114° |
| 2026-04-21 12:26 | 51.79763 | -0.78144 | 10137 ft | 233 kts | 114° |
| 2026-04-21 12:27 | 51.79043 | -0.75804 | 9619 ft | 232 kts | 114° |
| 2026-04-21 12:27 | 51.78327 | -0.73481 | 9161 ft | 230 kts | 114° |
| 2026-04-21 12:27 | 51.77615 | -0.71172 | 8868 ft | 229 kts | 114° |
| 2026-04-21 12:27 | 51.76908 | -0.68883 | 8623 ft | 227 kts | 114° |
| 2026-04-21 12:28 | 51.76206 | -0.66615 | 8418 ft | 224 kts | 114° |
| 2026-04-21 12:28 | 51.75506 | -0.64357 | 8326 ft | 224 kts | 114° |
| 2026-04-21 12:28 | 51.74809 | -0.62099 | 8325 ft | 226 kts | 114° |
| 2026-04-21 12:28 | 51.74115 | -0.59853 | 8329 ft | 227 kts | 114° |
| 2026-04-21 12:29 | 51.73395 | -0.57599 | 8395 ft | 227 kts | 120° |
| 2026-04-21 12:29 | 51.72239 | -0.55860 | 8399 ft | 235 kts | 150° |
| 2026-04-21 12:29 | 51.70630 | -0.55310 | 8241 ft | 242 kts | 175° |
| 2026-04-21 12:29 | 51.68939 | -0.55477 | 7872 ft | 244 kts | 181° |
| 2026-04-21 12:30 | 51.67247 | -0.55760 | 7590 ft | 244 kts | 181° |
| 2026-04-21 12:30 | 51.65563 | -0.56056 | 7373 ft | 241 kts | 181° |
| 2026-04-21 12:30 | 51.63891 | -0.56342 | 7324 ft | 242 kts | 181° |
| 2026-04-21 12:30 | 51.62210 | -0.56651 | 7327 ft | 245 kts | 184° |
| 2026-04-21 12:31 | 51.60631 | -0.57726 | 7324 ft | 254 kts | 216° |
| 2026-04-21 12:31 | 51.59553 | -0.60001 | 7325 ft | 262 kts | 247° |
| 2026-04-21 12:31 | 51.59109 | -0.62806 | 7328 ft | 264 kts | 259° |
| 2026-04-21 12:31 | 51.58816 | -0.65710 | 7178 ft | 263 kts | 261° |
| 2026-04-21 12:32 | 51.58546 | -0.68616 | 6906 ft | 262 kts | 261° |
| 2026-04-21 12:32 | 51.58283 | -0.71507 | 6642 ft | 261 kts | 261° |
| 2026-04-21 12:32 | 51.58023 | -0.74384 | 6357 ft | 260 kts | 261° |
| 2026-04-21 12:32 | 51.57757 | -0.77255 | 6074 ft | 259 kts | 261° |
| 2026-04-21 12:33 | 51.57493 | -0.80067 | 5936 ft | 250 kts | 261° |
| 2026-04-21 12:33 | 51.57236 | -0.82785 | 5807 ft | 242 kts | 261° |
| 2026-04-21 12:33 | 51.56984 | -0.85420 | 5679 ft | 234 kts | 261° |
| 2026-04-21 12:33 | 51.56667 | -0.87914 | 5532 ft | 221 kts | 244° |
| 2026-04-21 12:34 | 51.55780 | -0.89752 | 5262 ft | 208 kts | 207° |
| 2026-04-21 12:34 | 51.54473 | -0.90538 | 4894 ft | 198 kts | 185° |
| 2026-04-21 12:34 | 51.53117 | -0.90896 | 4525 ft | 197 kts | 181° |
| 2026-04-21 12:34 | 51.51761 | -0.91185 | 4179 ft | 196 kts | 181° |
| 2026-04-21 12:35 | 51.50451 | -0.91026 | 3824 ft | 184 kts | 152° |
| 2026-04-21 12:35 | 51.49338 | -0.90106 | 3475 ft | 179 kts | 136° |
| 2026-04-21 12:35 | 51.48460 | -0.88755 | 3253 ft | 172 kts | 120° |
| 2026-04-21 12:35 | 51.47870 | -0.87142 | 3072 ft | 166 kts | 106° |
| 2026-04-21 12:36 | 51.47578 | -0.85376 | 2999 ft | 163 kts | 93° |
| 2026-04-21 12:36 | 51.47551 | -0.83548 | 3003 ft | 165 kts | 87° |
| 2026-04-21 12:36 | 51.47565 | -0.81744 | 2997 ft | 164 kts | 87° |
| 2026-04-21 12:36 | 51.47578 | -0.79909 | 3002 ft | 164 kts | 87° |
| 2026-04-21 12:37 | 51.47590 | -0.78087 | 3001 ft | 163 kts | 87° |
| 2026-04-21 12:37 | 51.47601 | -0.76332 | 3002 ft | 151 kts | 87° |
| 2026-04-21 12:37 | 51.47611 | -0.74688 | 3017 ft | 144 kts | 87° |
| 2026-04-21 12:37 | 51.47622 | -0.73077 | 3005 ft | 144 kts | 87° |
| 2026-04-21 12:38 | 51.47632 | -0.71470 | 2905 ft | 143 kts | 87° |
| 2026-04-21 12:38 | 51.47641 | -0.69879 | 2749 ft | 143 kts | 87° |
| 2026-04-21 12:38 | 51.47651 | -0.68287 | 2571 ft | 142 kts | 87° |
| 2026-04-21 12:38 | 51.47660 | -0.66708 | 2393 ft | 141 kts | 88° |
| 2026-04-21 12:39 | 51.47668 | -0.65140 | 2202 ft | 141 kts | 87° |
| 2026-04-21 12:39 | 51.47677 | -0.63593 | 2007 ft | 142 kts | 87° |
| 2026-04-21 12:39 | 51.47685 | -0.62025 | 1812 ft | 141 kts | 88° |
| 2026-04-21 12:39 | 51.47693 | -0.60450 | 1618 ft | 142 kts | 88° |
| 2026-04-21 12:40 | 51.47701 | -0.58880 | 1423 ft | 139 kts | 88° |
| 2026-04-21 12:40 | 51.47709 | -0.57321 | 1238 ft | 140 kts | 88° |
| 2026-04-21 12:40 | 51.47716 | -0.55786 | 1037 ft | 137 kts | 87° |
| 2026-04-21 12:40 | 51.47723 | -0.54258 | 850 ft | 136 kts | 86° |
| 2026-04-21 12:41 | 51.47730 | -0.52720 | 651 ft | 138 kts | 87° |
| 2026-04-21 12:41 | 51.47737 | -0.51191 | 477 ft | 137 kts | 90° |
| 2026-04-21 12:41 | 51.47748 | -0.49683 | 268 ft | 140 kts | 89° |
| 2026-04-21 12:41 | 51.47753 | -0.48167 | 123 ft | 135 kts | 88° |
| 2026-04-21 12:42 | 51.47758 | -0.46786 | 91 ft | 106 kts | 91° |
| 2026-04-21 12:42 | 51.47761 | -0.45872 | 84 ft | 63 kts | 90° |
| 2026-04-21 12:42 | 51.47765 | -0.45269 | 87 ft | 50 kts | 90° |
| 2026-04-21 12:42 | 51.47764 | -0.44749 | 89 ft | 42 kts | 89° |
| 2026-04-21 12:43 | 51.47709 | -0.44419 | 88 ft | 15 kts | 116° |
| 2026-04-21 12:43 | 51.47668 | -0.44277 | 87 ft | 10 kts | 116° |
| 2026-04-21 12:43 | 51.47618 | -0.44237 | 86 ft | 6 kts | 196° |
| 2026-04-21 12:43 | 51.47589 | -0.44273 | 89 ft | 15 kts | 239° |
| 2026-04-21 12:44 | 51.47598 | -0.44387 | 88 ft | 10 kts | 273° |
| 2026-04-21 12:44 | 51.47601 | -0.44517 | 86 ft | 13 kts | 267° |
| 2026-04-21 12:44 | 51.47599 | -0.44673 | 86 ft | 15 kts | 271° |
| 2026-04-21 12:44 | 51.47598 | -0.44855 | 86 ft | 17 kts | 267° |
| 2026-04-21 12:45 | 51.47596 | -0.45059 | 91 ft | 19 kts | 269° |
| 2026-04-21 12:45 | 51.47596 | -0.45287 | 86 ft | 21 kts | 269° |
| 2026-04-21 12:45 | 51.47596 | -0.45539 | 86 ft | 24 kts | 269° |
| 2026-04-21 12:45 | 51.47595 | -0.45813 | 87 ft | 26 kts | 270° |
| 2026-04-21 12:46 | 51.47594 | -0.46112 | 90 ft | 28 kts | 269° |
| 2026-04-21 12:46 | 51.47593 | -0.46436 | 86 ft | 30 kts | 271° |
| 2026-04-21 12:46 | 51.47592 | -0.46718 | 86 ft | 15 kts | 270° |
| 2026-04-21 12:46 | 51.47588 | -0.46838 | 86 ft | 11 kts | 259° |
| 2026-04-21 12:47 | 51.47583 | -0.46974 | 90 ft | 13 kts | 271° |
| 2026-04-21 12:47 | 51.47582 | -0.47129 | 86 ft | 14 kts | 269° |
| 2026-04-21 12:47 | 51.47581 | -0.47295 | 89 ft | 15 kts | 270° |
| 2026-04-21 12:47 | 51.47582 | -0.47471 | 88 ft | 16 kts | 271° |
| 2026-04-21 12:48 | 51.47580 | -0.47654 | 88 ft | 16 kts | 269° |
| 2026-04-21 12:48 | 51.47579 | -0.47839 | 90 ft | 17 kts | 269° |
| 2026-04-21 12:48 | 51.47579 | -0.48025 | 88 ft | 17 kts | 270° |
| 2026-04-21 12:48 | 51.47578 | -0.48216 | 88 ft | 17 kts | 270° |
| 2026-04-21 12:49 | 51.47578 | -0.48371 | 88 ft | 10 kts | 269° |
| 2026-04-21 12:49 | 51.47552 | -0.48468 | 86 ft | 10 kts | 208° |
| 2026-04-21 12:49 | 51.47481 | -0.48474 | 86 ft | 11 kts | 179° |
| 2026-04-21 12:49 | 51.47421 | -0.48473 | 86 ft | 7 kts | 180° |
| 2026-04-21 12:50 | 51.47398 | -0.48527 | 88 ft | 7 kts | 265° |
| 2026-04-21 12:50 | 51.47399 | -0.48576 | 87 ft | 0 kts | 272° |
| 2026-04-21 12:50 | 51.47399 | -0.48587 | 86 ft | 0 kts | 270° |